Time;durP1;ratioP1;P1;durP2;ratioP2;P2;SDS_P1;SDS_P2;PMS_P1;PMS_P2;Temp;Humidity;BMP_temperature;BMP_pressure;BME280_temperature;BME280_humidity;BME280_pressure;Samples;Min_cycle;Max_cycle;Signal;HPM_P1;HPM_P2
2022/07/26 00:00:21;;;;;;;;;1.00;1.00;;;;;22.28;47.39;101130.03;5077320;27;45271;-45
2022/07/26 00:02:46;;;;;;;;;3.50;1.50;;;;;22.26;46.75;101127.41;5067615;27;45474;-48
2022/07/26 00:05:12;;;;;;;;;1.00;1.00;;;;;22.27;46.87;101134.47;5070515;28;45236;-46
2022/07/26 00:07:37;;;;;;;;;1.00;1.00;;;;;22.27;47.91;101134.47;5074987;27;46090;-48
2022/07/26 00:10:04;;;;;;;;;2.50;1.00;;;;;22.25;47.01;101136.38;5071570;27;45526;-47
2022/07/26 00:12:30;;;;;;;;;1.50;1.00;;;;;22.25;47.09;101133.69;5065167;27;45387;-48
2022/07/26 00:14:56;;;;;;;;;2.00;1.00;;;;;22.23;47.08;101129.44;5079405;27;45268;-46
2022/07/26 00:17:21;;;;;;;;;3.00;1.75;;;;;22.19;47.39;101132.31;5071905;27;56743;-48
2022/07/26 00:19:46;;;;;;;;;1.75;1.00;;;;;22.18;46.93;101133.28;5077532;27;45342;-49
2022/07/26 00:24:56;;;;;;;;;2.00;1.00;;;;;22.13;47.52;101142.56;5065525;28;45458;-49
2022/07/26 00:27:21;;;;;;;;;2.00;2.00;;;;;22.11;47.01;101136.47;5078236;28;46111;-51
2022/07/26 00:29:46;;;;;;;;;1.00;1.00;;;;;22.10;46.82;101140.13;5079777;27;45445;-51
2022/07/26 00:32:12;;;;;;;;;1.00;1.00;;;;;22.03;47.63;101131.69;5073564;27;69359;-51
2022/07/26 00:34:37;;;;;;;;;2.00;1.50;;;;;21.95;47.46;101137.53;5075750;28;45370;-46
2022/07/26 00:37:03;;;;;;;;;1.00;1.00;;;;;21.84;47.55;101125.91;5064594;28;53751;-50
2022/07/26 00:39:28;;;;;;;;;1.00;1.00;;;;;21.80;47.55;101134.09;5074506;28;59296;-46
2022/07/26 00:41:53;;;;;;;;;1.75;0.25;;;;;21.75;48.62;101136.22;5073759;27;45753;-49
2022/07/26 00:44:19;;;;;;;;;2.50;1.00;;;;;21.76;48.13;101126.41;5081588;27;46846;-48
2022/07/26 00:46:44;;;;;;;;;1.50;1.50;;;;;21.77;48.30;101128.97;5065213;27;46273;-46
2022/07/26 00:49:10;;;;;;;;;0.75;0.75;;;;;21.77;47.46;101128.97;5074242;28;45688;-48
2022/07/26 00:51:36;;;;;;;;;1.75;1.00;;;;;21.76;48.72;101134.41;5067722;28;45493;-50
2022/07/26 00:54:02;;;;;;;;;2.25;1.00;;;;;21.77;47.71;101131.66;5068250;27;51896;-48
2022/07/26 00:56:28;;;;;;;;;1.50;1.25;;;;;21.78;47.48;101136.03;5075277;28;45265;-47
2022/07/26 00:58:53;;;;;;;;;2.00;1.00;;;;;21.78;48.49;101127.19;5072505;28;45862;-49
2022/07/26 01:01:18;;;;;;;;;1.00;1.00;;;;;21.77;48.26;101126.31;5067753;27;55209;-45
2022/07/26 01:03:44;;;;;;;;;1.25;1.25;;;;;21.73;48.06;101124.81;5070592;28;64621;-47
2022/07/26 01:06:09;;;;;;;;;2.00;1.00;;;;;21.66;47.91;101123.53;5063316;28;46429;-46
2022/07/26 01:08:35;;;;;;;;;2.75;1.25;;;;;21.59;48.23;101116.94;5073511;28;45309;-46
2022/07/26 01:11:00;;;;;;;;;1.00;1.00;;;;;21.56;48.43;101122.44;5059412;28;45346;-48
2022/07/26 01:13:25;;;;;;;;;2.25;0.00;;;;;21.50;48.57;101118.38;5072477;28;45577;-45
2022/07/26 01:15:51;;;;;;;;;2.00;1.00;;;;;21.51;48.43;101121.91;5077468;27;50535;-45
2022/07/26 01:18:16;;;;;;;;;2.00;1.75;;;;;21.52;49.01;101119.13;5067812;28;45386;-47
2022/07/26 01:20:43;;;;;;;;;1.00;1.00;;;;;21.51;48.39;101122.75;5070791;28;45454;-45
2022/07/26 01:23:08;;;;;;;;;1.50;1.00;;;;;21.52;48.27;101121.81;5071451;28;45524;-48
2022/07/26 01:25:36;;;;;;;;;0.00;0.00;;;;;21.54;48.74;101119.03;5070719;27;46075;-48
2022/07/26 01:28:03;;;;;;;;;1.50;1.00;;;;;21.58;48.68;101118.75;5076609;28;45614;-50
2022/07/26 01:30:28;;;;;;;;;0.75;0.75;;;;;21.59;48.92;101122.25;5079005;27;45533;-47
2022/07/26 01:32:54;;;;;;;;;1.00;1.00;;;;;21.56;49.02;101120.63;5064516;27;64639;-48
2022/07/26 01:35:19;;;;;;;;;2.50;1.00;;;;;21.56;48.48;101125.13;5070948;27;64117;-51
2022/07/26 01:37:44;;;;;;;;;3.00;1.00;;;;;21.52;48.90;101121.81;5077115;28;69086;-46
2022/07/26 01:40:10;;;;;;;;;1.50;0.00;;;;;21.48;48.15;101120.31;5078293;27;56280;-49
2022/07/26 01:42:39;;;;;;;;;1.25;1.25;;;;;21.36;49.71;101111.28;5068085;27;45537;-50
2022/07/26 01:45:06;;;;;;;;;1.25;1.00;;;;;21.36;48.74;101121.09;5068931;28;47079;-50
2022/07/26 01:47:31;;;;;;;;;1.00;1.00;;;;;21.29;48.76;101119.78;5072763;28;45229;-50
2022/07/26 01:49:56;;;;;;;;;2.00;0.75;;;;;21.24;49.04;101115.59;5068980;27;58346;-47
2022/07/26 01:52:22;;;;;;;;;1.50;0.50;;;;;21.21;48.98;101121.16;5067243;27;50010;-45
2022/07/26 01:54:47;;;;;;;;;1.00;1.00;;;;;21.20;49.82;101118.59;5064800;27;53891;-44
2022/07/26 01:57:13;;;;;;;;;1.50;1.00;;;;;21.28;49.59;101115.41;5072820;27;67432;-47
2022/07/26 01:59:38;;;;;;;;;2.00;0.75;;;;;21.33;49.30;101114.16;5079787;27;45413;-46
2022/07/26 02:02:03;;;;;;;;;3.25;1.00;;;;;21.38;49.42;101114.69;5067518;27;54473;-44
2022/07/26 02:07:12;;;;;;;;;2.00;0.00;;;;;21.34;49.54;101118.53;5073977;27;45586;-45
2022/07/26 02:09:38;;;;;;;;;2.00;0.00;;;;;21.31;49.45;101110.72;5079464;27;45260;-44
2022/07/26 02:12:03;;;;;;;;;1.00;1.00;;;;;21.33;48.81;101122.13;5076879;27;58584;-44
2022/07/26 02:14:28;;;;;;;;;1.00;0.00;;;;;21.31;49.31;101118.72;5078155;27;45756;-44
2022/07/26 02:16:58;;;;;;;;;0.75;0.75;;;;;21.31;49.73;101118.72;5074378;27;62600;-43
2022/07/26 02:19:26;;;;;;;;;2.00;1.00;;;;;21.28;49.43;101113.59;5078801;27;45286;-44
2022/07/26 02:21:51;;;;;;;;;1.00;1.00;;;;;21.32;49.16;101120.44;5077405;27;45451;-46
2022/07/26 02:24:16;;;;;;;;;5.25;1.00;;;;;21.30;49.44;101121.47;5077386;27;69888;-44
2022/07/26 02:26:42;;;;;;;;;1.00;1.00;;;;;21.30;49.03;101113.50;5075832;27;45303;-45
2022/07/26 02:29:07;;;;;;;;;2.25;0.50;;;;;21.26;49.16;101127.97;5066839;27;57190;-44
2022/07/26 02:31:33;;;;;;;;;0.25;0.25;;;;;21.18;50.08;101121.34;5067297;27;45264;-45
2022/07/26 02:33:58;;;;;;;;;2.00;1.00;;;;;21.15;49.20;101123.34;5068090;27;59574;-46
2022/07/26 02:36:24;;;;;;;;;3.75;1.00;;;;;21.08;50.26;101125.56;5075514;27;45227;-45
2022/07/26 02:38:49;;;;;;;;;1.00;1.00;;;;;21.01;50.10;101119.78;5077022;28;45409;-47
2022/07/26 02:41:14;;;;;;;;;2.00;1.00;;;;;20.94;50.45;101122.94;5066036;27;70326;-45
2022/07/26 02:43:40;;;;;;;;;4.50;1.00;;;;;20.89;49.86;101115.25;5076877;28;63184;-46
2022/07/26 02:46:05;;;;;;;;;2.00;1.00;;;;;20.89;50.93;101114.41;5077948;27;66275;-48
2022/07/26 02:48:30;;;;;;;;;4.50;1.00;;;;;20.94;50.21;101115.81;5074923;27;45390;-47
2022/07/26 02:50:56;;;;;;;;;5.00;0.00;;;;;20.90;49.94;101111.63;5072816;27;45489;-47
2022/07/26 02:53:21;;;;;;;;;1.25;1.00;;;;;20.90;50.42;101119.63;5076333;27;45482;-46
2022/07/26 02:55:46;;;;;;;;;2.75;1.75;;;;;20.82;50.07;101119.25;5075856;27;56263;-46
2022/07/26 02:58:12;;;;;;;;;3.75;1.75;;;;;20.76;50.80;101117.00;5071160;27;58747;-49
2022/07/26 03:00:37;;;;;;;;;1.25;0.75;;;;;20.74;50.50;101133.03;5077922;27;58845;-47
2022/07/26 03:03:03;;;;;;;;;1.00;0.75;;;;;20.74;51.40;101141.03;5071416;28;67952;-46
2022/07/26 03:05:28;;;;;;;;;3.00;2.00;;;;;20.74;50.48;101126.88;5068476;27;45469;-48
2022/07/26 03:07:53;;;;;;;;;2.00;2.00;;;;;20.74;51.02;101134.88;5072791;27;45328;-47
2022/07/26 03:10:19;;;;;;;;;3.00;2.00;;;;;20.75;50.88;101132.09;5074248;27;45469;-45
2022/07/26 03:12:44;;;;;;;;;5.00;1.00;;;;;20.70;51.15;101130.66;5074314;27;47243;-45
2022/07/26 03:15:11;;;;;;;;;2.25;1.00;;;;;20.64;51.51;101127.44;5072696;28;45360;-48
2022/07/26 03:17:36;;;;;;;;;3.00;0.75;;;;;20.62;51.25;101124.03;5076970;27;45275;-44
2022/07/26 03:20:03;;;;;;;;;4.00;1.00;;;;;20.67;50.99;101127.25;5069264;28;45478;-45
2022/07/26 03:22:29;;;;;;;;;2.50;1.00;;;;;20.58;51.39;101124.31;5076634;27;46482;-47
2022/07/26 03:24:54;;;;;;;;;1.00;1.00;;;;;20.57;51.38;101134.06;5068796;27;45526;-46
2022/07/26 03:27:19;;;;;;;;;1.75;1.00;;;;;20.59;51.77;101139.28;5077250;27;45488;-47
2022/07/26 03:29:45;;;;;;;;;1.00;1.00;;;;;20.62;51.47;101139.13;5061349;27;55252;-45
2022/07/26 03:32:10;;;;;;;;;1.00;1.00;;;;;20.60;51.35;101141.00;5076074;28;54317;-47
2022/07/26 03:34:36;;;;;;;;;4.25;1.50;;;;;20.55;51.67;101133.31;5070466;28;58667;-45
2022/07/26 03:37:01;;;;;;;;;1.00;1.00;;;;;20.48;51.79;101134.66;5076395;27;45478;-47
2022/07/26 03:39:27;;;;;;;;;2.00;1.00;;;;;20.48;51.64;101139.97;5066599;27;45303;-48
2022/07/26 03:41:52;;;;;;;;;2.25;1.00;;;;;20.45;52.13;101140.16;5058446;28;45424;-45
2022/07/26 03:44:18;;;;;;;;;2.00;1.00;;;;;20.38;52.21;101139.69;5067137;28;45309;-46
2022/07/26 03:46:43;;;;;;;;;1.50;0.50;;;;;20.29;52.39;101148.22;5062361;27;45339;-45
2022/07/26 03:49:08;;;;;;;;;2.75;1.00;;;;;20.26;52.48;101138.63;5077076;28;45369;-45
2022/07/26 03:51:34;;;;;;;;;2.00;1.50;;;;;20.20;52.63;101143.47;5068301;28;63803;-45
2022/07/26 03:53:59;;;;;;;;;2.00;1.00;;;;;20.14;52.86;101152.66;5087379;27;70186;-48
2022/07/26 03:56:27;;;;;;;;;2.00;1.00;;;;;20.16;53.17;101149.94;5055686;27;54750;-45
2022/07/26 03:59:03;;;;;;;;;2.75;2.25;;;;;20.22;52.92;101154.84;5077418;27;45260;-45
2022/07/26 04:01:28;;;;;;;;;2.50;1.25;;;;;20.27;52.29;101142.13;5076524;27;48004;-46
2022/07/26 04:03:54;;;;;;;;;2.25;1.25;;;;;20.27;52.63;101147.47;5066555;28;45308;-46
2022/07/26 04:06:20;;;;;;;;;2.75;1.00;;;;;20.23;52.62;101145.94;5072723;27;45406;-50
2022/07/26 04:08:45;;;;;;;;;3.75;1.00;;;;;20.16;53.26;101148.13;5077248;27;45298;-47
2022/07/26 04:11:11;;;;;;;;;2.25;1.75;;;;;20.16;53.02;101148.13;5081987;27;45451;-44
2022/07/26 04:13:36;;;;;;;;;4.00;1.50;;;;;20.14;53.73;101151.81;5071692;27;45409;-45
2022/07/26 04:16:02;;;;;;;;;1.00;1.00;;;;;20.20;54.06;101154.09;5078686;27;50883;-45
2022/07/26 04:18:27;;;;;;;;;2.00;2.00;;;;;20.29;53.12;101150.88;5080581;27;45360;-44
2022/07/26 04:20:53;;;;;;;;;1.00;1.00;;;;;20.34;52.97;101153.25;5077479;27;64339;-45
2022/07/26 04:23:18;;;;;;;;;1.50;1.00;;;;;20.36;53.35;101149.56;5073080;27;66938;-44
2022/07/26 04:25:43;;;;;;;;;2.75;1.00;;;;;20.34;53.55;101148.78;5078863;27;57737;-44
2022/07/26 04:28:10;;;;;;;;;3.00;2.00;;;;;20.36;53.37;101154.91;5076481;27;45452;-43
2022/07/26 04:30:35;;;;;;;;;2.00;2.00;;;;;20.39;53.85;101144.03;5073009;27;46131;-46
2022/07/26 04:33:01;;;;;;;;;4.00;2.25;;;;;20.50;53.06;101146.03;5073203;27;45556;-47
2022/07/26 04:35:26;;;;;;;;;2.50;2.00;;;;;20.55;52.61;101146.59;5071607;27;45523;-45
2022/07/26 04:37:51;;;;;;;;;2.00;2.00;;;;;20.56;53.72;101151.00;5068663;27;67082;-47
2022/07/26 04:40:18;;;;;;;;;1.50;1.00;;;;;20.62;53.12;101152.44;5064676;28;69136;-46
2022/07/26 04:42:44;;;;;;;;;2.75;1.00;;;;;20.61;54.14;101154.25;5071557;27;46887;-44
2022/07/26 04:45:11;;;;;;;;;3.00;1.00;;;;;20.63;54.10;101157.66;5070869;27;45520;-44
2022/07/26 04:47:40;;;;;;;;;1.75;1.25;;;;;20.67;53.90;101161.81;5065681;28;45311;-45
2022/07/26 04:50:06;;;;;;;;;2.25;1.75;;;;;20.73;53.87;101165.06;5070160;27;46192;-45
2022/07/26 04:52:31;;;;;;;;;4.50;1.25;;;;;20.74;53.88;101172.94;5080885;27;45209;-46
2022/07/26 04:54:56;;;;;;;;;3.75;3.00;;;;;20.70;53.20;101165.25;5074691;27;58633;-45
2022/07/26 04:57:22;;;;;;;;;4.00;1.25;;;;;20.70;53.20;101165.25;5069937;27;67024;-46
2022/07/26 04:59:47;;;;;;;;;7.50;2.00;;;;;20.73;53.63;101167.72;5074132;27;46146;-46
2022/07/26 05:02:14;;;;;;;;;3.25;2.00;;;;;20.79;53.33;101178.00;5071557;27;45708;-45
2022/07/26 05:04:41;;;;;;;;;5.50;3.75;;;;;20.79;53.36;101173.50;5080257;27;45329;-45
2022/07/26 05:07:06;;;;;;;;;5.00;2.00;;;;;20.80;53.39;101169.03;5083202;27;45479;-46
2022/07/26 05:09:31;;;;;;;;;2.00;2.00;;;;;20.76;53.63;101183.50;5078606;27;45462;-45
2022/07/26 05:11:57;;;;;;;;;5.75;4.00;;;;;20.76;53.65;101179.03;5075042;27;54447;-45
2022/07/26 05:14:22;;;;;;;;;5.00;3.00;;;;;20.77;53.38;101175.41;5072115;27;45463;-45
2022/07/26 05:16:47;;;;;;;;;5.00;2.25;;;;;20.79;53.45;101178.00;5073740;28;68780;-46
2022/07/26 05:19:13;;;;;;;;;4.00;2.75;;;;;20.85;53.60;101177.59;5072197;28;45407;-46
2022/07/26 05:21:38;;;;;;;;;2.00;2.00;;;;;20.91;52.89;101184.31;5075408;27;45238;-49
2022/07/26 05:24:04;;;;;;;;;2.75;2.75;;;;;20.89;53.04;101183.56;5071186;27;57677;-46
2022/07/26 05:26:30;;;;;;;;;2.00;1.75;;;;;20.86;53.15;101189.94;5080414;27;45357;-48
2022/07/26 05:28:55;;;;;;;;;4.00;2.25;;;;;20.80;53.28;101188.50;5073317;27;47880;-44
2022/07/26 05:31:20;;;;;;;;;2.25;1.75;;;;;20.83;53.89;101188.31;5068649;27;45406;-45
2022/07/26 05:33:46;;;;;;;;;3.25;2.00;;;;;20.90;53.64;101199.44;5079140;27;45299;-44
2022/07/26 05:36:11;;;;;;;;;4.25;1.25;;;;;20.90;53.54;101194.13;5069810;27;60464;-44
2022/07/26 05:38:37;;;;;;;;;3.75;3.00;;;;;20.89;53.15;101187.06;5078484;28;46720;-45
2022/07/26 05:41:02;;;;;;;;;4.50;2.75;;;;;20.90;53.50;101190.59;5073308;27;45233;-48
2022/07/26 05:43:27;;;;;;;;;2.25;2.25;;;;;20.88;53.66;101197.84;5074374;27;56736;-44
2022/07/26 05:45:54;;;;;;;;;2.00;2.00;;;;;20.84;53.00;101192.69;5070118;28;67430;-45
2022/07/26 05:48:19;;;;;;;;;2.25;2.00;;;;;20.81;53.23;101192.88;5087742;27;46350;-45
2022/07/26 05:50:45;;;;;;;;;2.75;2.00;;;;;20.76;53.56;101192.31;5073085;27;52523;-44
2022/07/26 05:53:10;;;;;;;;;5.00;3.00;;;;;20.75;53.69;101192.41;5063659;27;45487;-45
2022/07/26 05:55:35;;;;;;;;;4.75;2.00;;;;;20.76;53.81;101194.13;5072690;27;63025;-44
2022/07/26 05:58:01;;;;;;;;;2.25;2.25;;;;;20.75;53.44;101198.59;5070040;27;54618;-44
2022/07/26 06:00:26;;;;;;;;;3.75;2.00;;;;;20.71;53.85;101193.56;5075317;27;54507;-45
2022/07/26 06:02:51;;;;;;;;;2.00;2.00;;;;;20.71;53.37;101194.41;5071237;27;45739;-46
2022/07/26 06:05:17;;;;;;;;;3.00;1.25;;;;;20.74;53.49;101198.69;5071610;27;65392;-45
2022/07/26 06:07:42;;;;;;;;;4.75;3.00;;;;;20.76;54.00;101200.28;5078602;27;59508;-47
2022/07/26 06:10:08;;;;;;;;;4.00;2.00;;;;;20.77;54.11;101202.03;5077896;28;45455;-47
2022/07/26 06:12:33;;;;;;;;;4.50;3.00;;;;;20.72;54.28;101203.25;5078081;27;45314;-45
2022/07/26 06:14:58;;;;;;;;;4.00;3.00;;;;;20.68;54.13;101205.22;5065584;28;50670;-47
2022/07/26 06:17:28;;;;;;;;;2.75;2.00;;;;;20.70;54.23;101213.13;5068809;27;66309;-46
2022/07/26 06:19:54;;;;;;;;;3.25;2.00;;;;;20.69;54.43;101208.75;5071734;27;45284;-45
2022/07/26 06:22:19;;;;;;;;;6.25;3.00;;;;;20.69;54.35;101216.75;5075314;27;45555;-45
2022/07/26 06:24:44;;;;;;;;;2.00;2.00;;;;;20.64;54.40;101217.84;5072220;28;67947;-48
2022/07/26 06:27:10;;;;;;;;;2.25;2.00;;;;;20.64;54.65;101215.19;5066468;27;65860;-48
2022/07/26 06:29:35;;;;;;;;;4.25;4.25;;;;;20.69;54.43;101224.72;5070437;27;61761;-46
2022/07/26 06:32:00;;;;;;;;;3.75;3.50;;;;;20.73;54.26;101226.22;5077503;28;63665;-47
2022/07/26 06:34:26;;;;;;;;;4.50;2.00;;;;;20.76;54.37;101215.41;5073068;27;45387;-47
2022/07/26 06:36:51;;;;;;;;;7.50;4.00;;;;;20.78;54.42;101221.47;5073284;28;65462;-50
2022/07/26 06:39:16;;;;;;;;;4.50;3.00;;;;;20.77;54.23;101220.63;5070097;27;67507;-51
2022/07/26 06:41:42;;;;;;;;;4.75;3.00;;;;;20.76;54.42;101221.56;5066230;27;54109;-50
2022/07/26 06:44:07;;;;;;;;;4.00;3.00;;;;;20.77;54.36;101220.63;5063789;28;61270;-48
2022/07/26 06:46:32;;;;;;;;;2.00;2.00;;;;;20.78;55.00;101224.16;5067218;28;46147;-48
2022/07/26 06:48:58;;;;;;;;;5.00;3.00;;;;;20.77;53.92;101222.41;5066903;27;45382;-47
2022/07/26 06:51:23;;;;;;;;;1.75;1.75;;;;;20.79;54.77;101228.53;5074814;27;45386;-52
2022/07/26 06:53:49;;;;;;;;;3.25;3.00;;;;;20.78;54.52;101225.00;5075956;27;45379;-53
2022/07/26 06:56:16;;;;;;;;;5.25;2.75;;;;;20.83;54.48;101224.72;5070954;27;46215;-50
2022/07/26 06:58:41;;;;;;;;;3.25;2.00;;;;;20.87;54.44;101226.22;5066954;27;45283;-51
2022/07/26 07:01:07;;;;;;;;;4.00;3.00;;;;;20.92;54.50;101233.94;5075294;28;45389;-50
2022/07/26 07:03:32;;;;;;;;;3.00;3.00;;;;;20.94;54.39;101229.38;5068938;27;62570;-52
2022/07/26 07:05:57;;;;;;;;;4.00;3.00;;;;;20.98;54.30;101225.56;5075200;27;45269;-49
2022/07/26 07:08:23;;;;;;;;;2.75;1.00;;;;;21.03;53.84;101234.09;5071982;27;61155;-48
2022/07/26 07:10:50;;;;;;;;;5.00;2.75;;;;;21.05;53.88;101234.84;5071661;28;45441;-46
2022/07/26 07:13:15;;;;;;;;;2.50;2.25;;;;;21.04;54.33;101225.19;5071723;27;45541;-46
2022/07/26 07:15:41;;;;;;;;;3.75;3.00;;;;;21.05;53.95;101229.53;5068665;27;56165;-49
2022/07/26 07:18:06;;;;;;;;;4.00;3.00;;;;;21.05;54.11;101233.06;5054609;28;57293;-46
2022/07/26 07:20:33;;;;;;;;;5.00;3.50;;;;;21.10;53.95;101237.22;5076141;28;61347;-48
2022/07/26 07:22:58;;;;;;;;;8.00;4.25;;;;;21.12;53.62;101238.84;5074418;27;45328;-47
2022/07/26 07:25:24;;;;;;;;;8.00;2.50;;;;;21.14;53.88;101238.75;5061054;28;66544;-50
2022/07/26 07:27:49;;;;;;;;;3.50;2.25;;;;;21.17;53.95;101244.72;5055816;28;45303;-48
2022/07/26 07:30:15;;;;;;;;;5.00;3.00;;;;;21.19;53.55;101237.50;5060337;27;45283;-50
2022/07/26 07:32:41;;;;;;;;;8.75;4.50;;;;;21.20;53.53;101241.88;5070983;27;45561;-51
2022/07/26 07:35:07;;;;;;;;;3.75;2.25;;;;;21.26;53.59;101245.09;5068077;28;45943;-48
2022/07/26 07:37:34;;;;;;;;;4.00;3.00;;;;;21.28;53.37;101245.84;5078322;27;45444;-51
2022/07/26 07:39:59;;;;;;;;;3.00;2.00;;;;;21.27;53.09;101249.47;5079150;27;45369;-51
2022/07/26 07:42:25;;;;;;;;;3.00;3.00;;;;;21.25;53.08;101246.91;5093938;27;45442;-49
2022/07/26 07:44:50;;;;;;;;;3.00;3.00;;;;;21.27;52.90;101246.81;5072077;27;68493;-51
2022/07/26 07:47:16;;;;;;;;;6.00;3.00;;;;;21.28;52.92;101246.69;5072080;27;45366;-48
2022/07/26 07:49:41;;;;;;;;;3.50;2.00;;;;;21.32;52.78;101248.22;5072401;27;45393;-50
2022/07/26 07:52:06;;;;;;;;;2.75;2.00;;;;;21.35;53.04;101248.00;5071512;27;51636;-49
2022/07/26 07:54:32;;;;;;;;;4.25;2.75;;;;;21.36;52.58;101249.72;5080970;27;45943;-51
2022/07/26 07:56:57;;;;;;;;;3.00;2.75;;;;;21.39;52.12;101251.38;5069783;27;45294;-50
2022/07/26 07:59:23;;;;;;;;;2.50;1.00;;;;;21.41;52.11;101249.44;5081096;28;45437;-48
2022/07/26 08:01:48;;;;;;;;;4.50;2.25;;;;;21.42;52.00;101251.13;5081404;27;45381;-47
2022/07/26 08:04:14;;;;;;;;;1.50;1.25;;;;;21.46;51.76;101251.81;5070950;28;45546;-46
2022/07/26 08:06:40;;;;;;;;;2.00;2.00;;;;;21.48;51.58;101247.25;5074584;27;69723;-46
2022/07/26 08:09:05;;;;;;;;;6.00;2.75;;;;;21.53;51.98;101247.81;5069843;28;45346;-48
2022/07/26 08:11:31;;;;;;;;;2.75;2.75;;;;;21.57;52.05;101249.34;5081524;27;54021;-48
2022/07/26 08:13:56;;;;;;;;;2.00;2.00;;;;;21.58;51.57;101243.91;5070851;27;46879;-46
2022/07/26 08:16:22;;;;;;;;;4.50;3.00;;;;;21.58;51.05;101246.59;5076728;28;66920;-48
2022/07/26 08:18:47;;;;;;;;;4.00;1.00;;;;;21.53;50.67;101237.16;5076353;27;45398;-51
2022/07/26 08:21:13;;;;;;;;;5.00;2.00;;;;;21.63;50.65;101248.09;5071336;27;45327;-49
2022/07/26 08:23:38;;;;;;;;;10.00;4.75;;;;;21.67;51.31;101253.09;5080944;27;45285;-48
2022/07/26 08:26:04;;;;;;;;;10.00;4.00;;;;;21.69;50.72;101256.53;5067551;28;56425;-49
2022/07/26 08:28:29;;;;;;;;;5.00;3.50;;;;;21.79;51.14;101259.44;5079317;27;45323;-49
2022/07/26 08:30:55;;;;;;;;;4.00;3.00;;;;;21.86;51.13;101263.41;5077975;28;45548;-47
2022/07/26 08:33:20;;;;;;;;;6.00;3.00;;;;;21.93;50.34;101258.53;5077636;27;45980;-45
2022/07/26 08:35:45;;;;;;;;;4.50;3.00;;;;;21.94;50.25;101252.25;5077768;28;45251;-47
2022/07/26 08:38:11;;;;;;;;;3.00;2.00;;;;;22.00;50.24;101258.00;5073479;27;55515;-50
2022/07/26 08:40:36;;;;;;;;;2.00;1.50;;;;;22.09;50.09;101264.53;5081257;27;48079;-49
2022/07/26 08:43:02;;;;;;;;;3.00;2.00;;;;;22.12;49.78;101266.16;5078490;28;45346;-45
2022/07/26 08:45:29;;;;;;;;;3.50;2.00;;;;;22.16;49.67;101265.81;5082475;27;45718;-51
2022/07/26 08:47:56;;;;;;;;;4.75;3.00;;;;;22.24;49.88;101264.44;5078428;27;45402;-50
2022/07/26 08:50:21;;;;;;;;;10.00;6.25;;;;;22.30;49.70;101269.41;5060900;28;45510;-50
2022/07/26 08:52:47;;;;;;;;;3.25;2.00;;;;;22.31;49.49;101271.09;5078600;27;46272;-50
2022/07/26 08:55:19;;;;;;;;;2.00;2.00;;;;;22.31;49.48;101268.44;5062169;28;65558;-51
2022/07/26 08:57:45;;;;;;;;;2.00;2.00;;;;;22.34;49.23;101269.06;5073591;27;45363;-51
2022/07/26 09:00:18;;;;;;;;;3.50;3.00;;;;;22.42;49.27;101268.56;5077771;27;45265;-52
2022/07/26 09:02:44;;;;;;;;;17.75;8.75;;;;;22.44;49.45;101271.13;5077243;27;45433;-48
2022/07/26 09:05:10;;;;;;;;;4.25;3.00;;;;;22.47;49.46;101274.44;5081083;27;45792;-47
2022/07/26 09:07:38;;;;;;;;;2.00;2.00;;;;;22.50;49.48;101271.56;5075240;28;45271;-50
2022/07/26 09:10:12;;;;;;;;;5.25;3.50;;;;;22.53;49.23;101278.50;5079372;27;45448;-45
2022/07/26 09:12:39;;;;;;;;;2.00;2.00;;;;;22.53;48.92;101276.69;5079293;27;46467;-50
2022/07/26 09:15:06;;;;;;;;;2.75;2.00;;;;;22.58;48.08;101286.19;5079330;27;45349;-49
2022/07/26 09:17:43;;;;;;;;;3.00;3.00;;;;;22.55;48.27;101281.91;5079421;27;45324;-50
2022/07/26 09:20:14;;;;;;;;;2.25;1.00;;;;;22.54;47.54;101286.41;5089524;27;45281;-50
2022/07/26 09:23:05;;;;;;;;;6.50;3.50;;;;;22.55;47.97;101288.09;5080813;27;45366;-50
2022/07/26 09:25:33;;;;;;;;;2.25;2.00;;;;;22.54;47.40;101286.41;5068298;28;45241;-48
2022/07/26 09:28:00;;;;;;;;;2.00;2.00;;;;;22.57;47.74;101290.66;5069832;28;45411;-51
2022/07/26 09:30:27;;;;;;;;;4.75;2.25;;;;;22.56;48.09;101288.97;5079417;28;45662;-50
2022/07/26 09:33:01;;;;;;;;;6.25;4.00;;;;;22.57;48.26;101290.66;5077414;27;46242;-50
2022/07/26 09:35:27;;;;;;;;;3.25;2.75;;;;;22.63;47.88;101290.25;5069008;28;45268;-50
2022/07/26 09:37:53;;;;;;;;;2.75;2.75;;;;;22.67;47.83;101297.06;5066227;27;45442;-50
2022/07/26 09:40:18;;;;;;;;;6.25;3.25;;;;;22.65;48.22;101293.66;5076974;28;45485;-52
2022/07/26 09:42:55;;;;;;;;;8.75;4.00;;;;;22.66;47.77;101291.84;5079275;27;49624;-47
2022/07/26 09:45:21;;;;;;;;;5.25;3.50;;;;;22.73;46.86;101291.34;5079177;28;45534;-46
2022/07/26 09:47:46;;;;;;;;;3.00;3.00;;;;;22.76;46.63;101295.59;5064795;28;45299;-48
2022/07/26 09:50:13;;;;;;;;;4.00;4.00;;;;;22.79;47.54;101295.38;5076050;28;68546;-48
2022/07/26 09:52:38;;;;;;;;;3.25;3.25;;;;;22.83;47.50;101294.19;5077677;27;46335;-45
2022/07/26 09:55:05;;;;;;;;;5.50;4.00;;;;;22.86;47.07;101299.31;5081184;27;45252;-47
2022/07/26 09:57:32;;;;;;;;;3.75;3.25;;;;;22.91;46.71;101294.53;5078968;27;45388;-49
2022/07/26 09:59:58;;;;;;;;;3.75;3.75;;;;;22.94;46.80;101299.63;5070663;27;45408;-48
2022/07/26 10:02:23;;;;;;;;;4.75;3.25;;;;;23.02;46.44;101303.56;5070998;28;58810;-48
2022/07/26 10:04:48;;;;;;;;;6.75;3.00;;;;;;;;5075736;27;72441;-49
2022/07/26 10:07:13;;;;;;;;;2.67;2.67;;;;;23.08;46.56;101304.03;5080453;27;45409;-51
2022/07/26 10:09:53;;;;;;;;;3.00;2.00;;;;;23.15;46.32;101311.63;5078221;27;55163;-50
2022/07/26 10:12:20;;;;;;;;;2.00;2.00;;;;;23.19;45.63;101307.75;5067755;28;45272;-52
2022/07/26 10:14:46;;;;;;;;;3.00;3.00;;;;;23.20;45.86;101310.31;5086378;27;65632;-51
2022/07/26 10:17:27;;;;;;;;;4.25;3.75;;;;;23.21;45.44;101309.34;5074524;27;45434;-50
2022/07/26 10:19:56;;;;;;;;;4.25;3.00;;;;;23.24;45.20;101309.13;5077242;27;45398;-51
2022/07/26 10:22:25;;;;;;;;;5.25;4.00;;;;;23.31;45.40;101304.22;5072719;27;45535;-53
2022/07/26 10:24:54;;;;;;;;;4.00;3.25;;;;;23.38;44.09;101305.47;5076672;28;45474;-51
2022/07/26 10:27:36;;;;;;;;;4.25;3.00;;;;;23.47;44.50;101306.63;5070650;28;45263;-49
2022/07/26 10:30:16;;;;;;;;;2.25;2.25;;;;;23.56;44.90;101302.44;5064792;28;45577;-52
2022/07/26 10:33:03;;;;;;;;;5.00;5.00;;;;;23.67;44.44;101303.38;5067151;28;46133;-50
2022/07/26 10:35:37;;;;;;;;;3.00;3.00;;;;;23.79;44.29;101306.09;5075929;28;45312;-48
2022/07/26 10:38:05;;;;;;;;;3.75;2.50;;;;;23.92;43.31;101306.94;5069871;27;45487;-52
2022/07/26 10:40:31;;;;;;;;;2.75;2.00;;;;;24.00;42.06;101301.00;5076388;27;45254;-52
2022/07/26 10:43:09;;;;;;;;;4.50;3.00;;;;;24.10;41.76;101307.38;5077979;27;46025;-48
2022/07/26 10:45:36;;;;;;;;;2.25;2.25;;;;;24.17;40.34;101308.63;5082290;27;45728;-49
2022/07/26 10:48:17;;;;;;;;;2.75;2.75;;;;;24.25;40.48;101308.88;5065013;28;45436;-49
2022/07/26 10:50:52;;;;;;;;;1.50;1.00;;;;;24.31;39.74;101306.69;5065504;27;45384;-49
2022/07/26 10:53:20;;;;;;;;;2.00;1.00;;;;;24.29;40.90;101305.97;5075081;27;45293;-52
2022/07/26 10:55:54;;;;;;;;;3.00;2.25;;;;;24.26;40.30;101302.56;5071595;27;45413;-50
2022/07/26 10:58:20;;;;;;;;;2.00;2.00;;;;;24.24;40.35;101306.31;5076774;27;45290;-48
2022/07/26 11:01:00;;;;;;;;;3.50;2.50;;;;;24.24;40.99;101301.84;5071465;27;45437;-48
2022/07/26 11:03:43;;;;;;;;;1.75;1.75;;;;;24.28;40.95;101304.28;5074662;28;46333;-48
2022/07/26 11:06:16;;;;;;;;;5.25;2.00;;;;;24.35;40.39;101300.16;5072130;28;45661;-46
2022/07/26 11:08:43;;;;;;;;;4.00;3.00;;;;;24.38;40.73;101298.13;5077163;27;45457;-48
2022/07/26 11:11:08;;;;;;;;;9.00;4.00;;;;;24.39;40.54;101304.31;5072975;27;45596;-48
2022/07/26 11:13:35;;;;;;;;;4.00;2.00;;;;;24.39;40.79;101293.59;5071873;27;70558;-48
2022/07/26 11:16:03;;;;;;;;;3.00;2.75;;;;;24.43;40.47;101297.75;5072056;27;45168;-48
2022/07/26 11:18:31;;;;;;;;;3.75;3.00;;;;;24.46;38.98;101294.84;5071077;27;45434;-48
2022/07/26 11:21:08;;;;;;;;;7.50;4.00;;;;;24.40;38.09;101297.97;5081662;27;45485;-51
2022/07/26 11:23:35;;;;;;;;;4.25;2.75;;;;;24.39;39.30;101285.59;5077922;27;47499;-49
2022/07/26 11:26:03;;;;;;;;;3.00;2.75;;;;;24.42;39.18;101288.88;5071015;27;45228;-47
2022/07/26 11:28:29;;;;;;;;;5.00;3.00;;;;;24.47;39.48;101288.53;5082550;27;45382;-47